Commodore Goodwill — C6NU8 — position and weather

sailwx.info

Track history (hours):
 
Tides and Currents Weather Stations Pressure Air Temp Water Temp Dewpoint Dewpoint Depression Visibility Wind Speed Wind Dir Waves Ship Positions

Commodore Goodwill

Operator: Condor Marine Services

Last reported at 2017-Jun-23 18:31 UTC. Time now 2017-Jun-23 18:55 UTC.
Position N 50°46' W 001°06'.

Length 126 m; draft 5.3 m.

Type: Ship (hazmat cat C). MMSI: 309536000.

Date/timePositionNaut miles runAvg speedWind from/ knotsBaromVisibWave heightAir tempDewpointWater temp
2017-Jun-23 18:31N 50°46' W 001°06'2 4.8
2017-Jun-23 18:00N 50°49' W 001°06'0 0.0
2017-Jun-23 17:30N 50°49' W 001°06'0 0.0
2017-Jun-23 17:00N 50°49' W 001°06'0 0.0
2017-Jun-23 16:30N 50°49' W 001°06'0 0.0
2017-Jun-23 16:00N 50°49' W 001°06'0 0.0
2017-Jun-23 15:30N 50°49' W 001°06'2 4.5
2017-Jun-23 15:00N 50°47' W 001°06'1211.8
2017-Jun-23 13:58N 50°34' W 001°09'9014.3
2017-Jun-23 07:40N 49°17' W 002°21'916.1
2017-Jun-23 07:07N 49°10' W 002°13'2 0.6
2017-Jun-23 04:30N 49°10' W 002°16'32 7.2
2017-Jun-23 00:07N 49°41' W 002°07'518.1
2017-Jun-22 23:51N 49°45' W 002°03'1515.5
2017-Jun-22 22:54N 49°58' W 001°51'4714.2
2017-Jun-22 19:38N 50°36' W 001°08'412.9
2017-Jun-22 19:18N 50°39' W 001°05'414.5
2017-Jun-22 19:01N 50°43' W 001°03'611.7
2017-Jun-22 18:30N 50°49' W 001°06'0 0.8
2017-Jun-22 18:00N 50°49' W 001°06'0 0.0
2017-Jun-22 17:30N 50°49' W 001°06'0 0.0
2017-Jun-22 17:01N 50°49' W 001°06'0 0.0
2017-Jun-22 16:30N 50°49' W 001°06'0 0.0
2017-Jun-22 16:00N 50°49' W 001°06'0 0.0
2017-Jun-22 15:30N 50°49' W 001°06'2 3.5
2017-Jun-22 15:00N 50°47' W 001°06'1111.3
2017-Jun-22 14:00N 50°36' W 001°08'6015.7
2017-Jun-22 10:13N 49°47' W 002°02'3416.7
2017-Jun-22 08:10N 49°15' W 002°21'419.2
2017-Jun-22 07:57N 49°11' W 002°19'7 2.4
2017-Jun-22 04:54N 49°10' W 002°08'2115.2
2017-Jun-22 03:30N 49°26' W 002°29'2 1.6
2017-Jun-22 02:10N 49°27' W 002°32'0 0.2
2017-Jun-22 01:55N 49°27' W 002°32'610.0
2017-Jun-22 01:17N 49°28' W 002°22'414.4
2017-Jun-22 00:59N 49°31' W 002°17'612.8
2017-Jun-22 00:30N 49°34' W 002°09'611.6
2017-Jun-22 00:00N 49°40' W 002°05'1012.7
2017-Jun-21 23:14N 49°48' W 001°60'410.9
2017-Jun-21 22:53N 49°52' W 001°57'712.2
2017-Jun-21 22:20N 49°58' W 001°51'617.2
2017-Jun-21 21:58N 50°03' W 001°45'816.7
2017-Jun-21 21:30N 50°09' W 001°38'1016.1
2017-Jun-21 20:55N 50°16' W 001°28'1017.2
2017-Jun-21 20:21N 50°24' W 001°20'1017.0
2017-Jun-21 19:45N 50°33' W 001°12'416.2
2017-Jun-21 19:30N 50°36' W 001°08'814.9
2017-Jun-21 19:00N 50°43' W 001°03'612.2
2017-Jun-21 18:31N 50°49' W 001°07'1 1.2
2017-Jun-21 18:00N 50°49' W 001°06'0 0.0
2017-Jun-21 17:31N 50°49' W 001°06'0 0.0
2017-Jun-21 17:00N 50°49' W 001°06'0 0.0
2017-Jun-21 16:30N 50°49' W 001°06'0 0.0
2017-Jun-21 16:00N 50°49' W 001°06'0 0.0
2017-Jun-21 15:30N 50°49' W 001°06'2 3.6
2017-Jun-21 15:00N 50°47' W 001°06'815.0
2017-Jun-21 14:30N 50°40' W 001°01'7914.1
2017-Jun-21 08:54N 49°35' W 002°09'1516.0
2017-Jun-21 07:58N 49°26' W 002°27'3 2.0
2017-Jun-21 06:18N 49°27' W 002°32'613.3
2017-Jun-21 05:51N 49°22' W 002°27'1314.5
2017-Jun-21 04:57N 49°11' W 002°18'716.4
2017-Jun-21 04:30N 49°11' W 002°07'1 0.4
2017-Jun-21 02:12N 49°10' W 002°08'2510.6
2017-Jun-20 23:53N 49°34' W 002°10'615.1
2017-Jun-20 23:28N 49°40' W 002°07'1317.7
2017-Jun-20 22:43N 49°49' W 001°52'917.3
2017-Jun-20 22:11N 49°55' W 001°41'418.3
2017-Jun-20 21:58N 49°58' W 001°36'1018.3
2017-Jun-20 21:27N 50°07' W 001°31'917.2
2017-Jun-20 20:56N 50°16' W 001°32'917.5
2017-Jun-20 20:24N 50°23' W 001°24'718.3
2017-Jun-20 20:00N 50°29' W 001°16'1018.1
2017-Jun-20 19:27N 50°37' W 001°07'715.4
2017-Jun-20 19:00N 50°44' W 001°04'510.6
2017-Jun-20 18:31N 50°49' W 001°06'1 1.0
2017-Jun-20 18:00N 50°49' W 001°06'0 0.0
2017-Jun-20 17:30N 50°49' W 001°06'0 0.0
2017-Jun-20 17:00N 50°49' W 001°06'0 0.0
2017-Jun-20 16:30N 50°49' W 001°06'0 0.0
2017-Jun-20 16:00N 50°49' W 001°06'0 0.0
2017-Jun-20 15:30N 50°49' W 001°06'2 3.6
2017-Jun-20 15:01N 50°47' W 001°06'1313.3
2017-Jun-20 14:00N 50°34' W 001°08'1213.6
2017-Jun-20 13:09N 50°25' W 001°19'612.8
2017-Jun-20 12:39N 50°20' W 001°26'212.4
2017-Jun-20 12:27N 50°18' W 001°28'612.1
2017-Jun-20 11:56N 50°13' W 001°35'511.6
2017-Jun-20 11:30N 50°09' W 001°39'611.4
2017-Jun-20 10:59N 50°04' W 001°44'613.4
2017-Jun-20 10:30N 49°58' W 001°48'1015.3
2017-Jun-20 09:51N 49°49' W 001°56'714.0
2017-Jun-20 09:22N 49°45' W 002°03'813.4
2017-Jun-20 08:48N 49°38' W 002°07'515.4
2017-Jun-20 08:30N 49°34' W 002°11'816.4
2017-Jun-20 08:00N 49°29' W 002°21'612.1
2017-Jun-20 07:30N 49°27' W 002°30'1 2.1
2017-Jun-20 06:59N 49°27' W 002°32'0 0.0
2017-Jun-20 06:21N 49°27' W 002°32'410.0
2017-Jun-20 05:57N 49°24' W 002°28'612.9
2017-Jun-20 05:28N 49°19' W 002°23'611.5
2017-Jun-20 04:59N 49°14' W 002°20'713.7
2017-Jun-20 04:30N 49°10' W 002°12'3 1.6
2017-Jun-20 02:23N 49°10' W 002°07'614.7
2017-Jun-20 02:00N 49°10' W 002°16'714.6
2017-Jun-20 01:30N 49°17' W 002°19'8515.0
2017-Jun-19 19:52N 50°31' W 001°14'718.4
2017-Jun-19 19:30N 50°36' W 001°08'816.3
2017-Jun-19 19:01N 50°44' W 001°04'5 9.9
2017-Jun-19 18:31N 50°49' W 001°06'0 0.4
2017-Jun-19 18:00N 50°49' W 001°06'0 0.0
2017-Jun-19 17:30N 50°49' W 001°06'0 0.0
2017-Jun-19 17:01N 50°49' W 001°06'0 0.0
2017-Jun-19 16:31N 50°49' W 001°06'0 0.0
2017-Jun-19 16:01N 50°49' W 001°06'0 0.0
2017-Jun-19 15:30N 50°49' W 001°06'3 5.0
2017-Jun-19 15:01N 50°46' W 001°06'612.1
2017-Jun-19 14:30N 50°40' W 001°04'9213.7
2017-Jun-19 07:45N 49°26' W 002°28'20 3.6
2017-Jun-19 02:12N 49°10' W 002°09'39 9.7
2017-Jun-18 22:12N 49°49' W 002°02'313.9
2017-Jun-18 22:00N 49°51' W 002°01'714.3
2017-Jun-18 21:30N 49°58' W 001°57'715.0
2017-Jun-18 21:01N 50°04' W 001°51'816.1
2017-Jun-18 20:30N 50°10' W 001°43'916.5
2017-Jun-18 19:59N 50°17' W 001°34'816.8
2017-Jun-18 19:30N 50°23' W 001°25'1516.6
2017-Jun-18 18:37N 50°34' W 001°11'917.6
2017-Jun-18 18:08N 50°41' W 001°03'216.7
2017-Jun-18 18:00N 50°43' W 001°03'611.9
2017-Jun-18 17:30N 50°48' W 001°07'1 1.7
2017-Jun-18 17:00N 50°49' W 001°06'0 0.0
2017-Jun-18 16:30N 50°49' W 001°06'0 0.0
2017-Jun-18 16:00N 50°49' W 001°06'0 0.0
2017-Jun-18 15:30N 50°49' W 001°06'0 0.0
2017-Jun-18 15:00N 50°49' W 001°06'0 0.0
2017-Jun-18 14:00N 50°49' W 001°06'0 0.0
2017-Jun-18 13:30N 50°49' W 001°06'0 0.0
2017-Jun-18 13:00N 50°49' W 001°06'0 0.0
2017-Jun-18 12:30N 50°49' W 001°06'0 0.0
2017-Jun-18 12:00N 50°49' W 001°06'0 0.0
2017-Jun-18 11:30N 50°49' W 001°06'0 0.0
2017-Jun-18 11:00N 50°49' W 001°06'0 0.0
2017-Jun-18 10:30N 50°49' W 001°06'0 0.0
2017-Jun-18 10:00N 50°49' W 001°06'0 0.0
2017-Jun-18 09:30N 50°49' W 001°06'0 0.0
2017-Jun-18 09:00N 50°49' W 001°06'0 0.0
2017-Jun-18 08:30N 50°49' W 001°06'0 0.0
2017-Jun-18 08:01N 50°49' W 001°06'0 0.0
2017-Jun-18 07:31N 50°49' W 001°06'0 0.0
2017-Jun-18 07:01N 50°49' W 001°06'0 0.0
2017-Jun-18 06:31N 50°49' W 001°06'0 0.0
2017-Jun-18 06:00N 50°49' W 001°06'2 3.3
2017-Jun-18 05:30N 50°47' W 001°06'714.3
2017-Jun-18 05:00N 50°40' W 001°04'2814.3
2017-Jun-18 03:05N 50°18' W 001°30'113.1
2017-Jun-18 03:00N 50°17' W 001°30'811.9
2017-Jun-18 02:21N 50°10' W 001°36'411.4
2017-Jun-18 02:01N 50°07' W 001°39'611.7
2017-Jun-18 01:30N 50°02' W 001°44'612.0
2017-Jun-18 01:00N 49°57' W 001°49'611.9
2017-Jun-18 00:30N 49°52' W 001°54'510.5
2017-Jun-18 00:01N 49°47' W 001°59'2410.1
2017-Jun-17 21:36N 49°25' W 002°14'2 7.8
2017-Jun-17 21:20N 49°23' W 002°16'4 7.8
2017-Jun-17 20:46N 49°19' W 002°19'3 7.6
2017-Jun-17 20:24N 49°17' W 002°20'23 6.7
2017-Jun-17 17:02N 48°54' W 002°21'0 5.0
2017-Jun-17 16:58N 48°54' W 002°20'3 5.4
2017-Jun-17 16:30N 48°52' W 002°18'3 5.5
2017-Jun-17 16:01N 48°50' W 002°16'3 5.4
2017-Jun-17 15:30N 48°47' W 002°14'3 5.7
2017-Jun-17 14:53N 48°44' W 002°11'5 6.1
2017-Jun-17 13:59N 48°40' W 002°05'3 1.1
2017-Jun-17 11:25N 48°38' W 002°02'611.8
2017-Jun-17 10:57N 48°44' W 002°02'917.4
2017-Jun-17 10:27N 48°52' W 001°59'817.5
2017-Jun-17 09:59N 49°00' W 001°55'1218.1
2017-Jun-17 09:18N 49°10' W 002°07'1 0.5
2017-Jun-17 06:57N 49°11' W 002°07'3 4.9
2017-Jun-17 06:25N 49°10' W 002°11'815.1
2017-Jun-17 05:53N 49°14' W 002°21'614.6
2017-Jun-17 05:28N 49°19' W 002°26'813.7
2017-Jun-17 04:53N 49°27' W 002°30'1 0.9
2017-Jun-17 03:23N 49°27' W 002°32'4 9.3
2017-Jun-17 03:00N 49°26' W 002°27'914.9
2017-Jun-17 02:23N 49°31' W 002°15'614.5
2017-Jun-17 01:59N 49°36' W 002°09'1310.6
2017-Jun-17 00:46N 49°47' W 001°59'2 9.1
2017-Jun-17 00:30N 49°48' W 001°57'5 9.6
2017-Jun-17 00:00N 49°51' W 001°51'510.4
2017-Jun-16 23:30N 49°55' W 001°46'610.8
2017-Jun-16 23:00N 49°59' W 001°40'612.1
2017-Jun-16 22:30N 50°05' W 001°37'612.6
2017-Jun-16 22:00N 50°11' W 001°34'612.2
2017-Jun-16 21:30N 50°16' W 001°29'611.2
2017-Jun-16 21:00N 50°21' W 001°24'612.2
2017-Jun-16 20:30N 50°26' W 001°18'612.7
2017-Jun-16 19:59N 50°31' W 001°13'713.3
2017-Jun-16 19:30N 50°37' W 001°08'713.4
2017-Jun-16 19:01N 50°43' W 001°03'611.7
2017-Jun-16 18:31N 50°48' W 001°07'1 1.7
2017-Jun-16 18:00N 50°49' W 001°06'0 0.0
2017-Jun-16 17:30N 50°49' W 001°06'0 0.0
2017-Jun-16 17:00N 50°49' W 001°06'0 0.0
2017-Jun-16 16:30N 50°49' W 001°06'0 0.3
2017-Jun-16 16:00N 50°49' W 001°06'4 8.9
2017-Jun-16 15:30N 50°44' W 001°04'915.9
2017-Jun-16 14:58N 50°36' W 001°08'818.1
2017-Jun-16 14:30N 50°29' W 001°16'1918.7
2017-Jun-16 13:29N 50°13' W 001°32'918.9
2017-Jun-16 13:00N 50°06' W 001°40'815.2
2017-Jun-16 12:30N 49°59' W 001°46'1018.8
2017-Jun-16 12:00N 49°52' W 001°55'6 0.5
2017-Jun-15 23:33N 49°46' W 001°59'112.8
2017-Jun-15 23:29N 49°47' W 001°59'713.5
2017-Jun-15 23:00N 49°52' W 001°52'611.2
2017-Jun-15 22:30N 49°57' W 001°48'510.2
2017-Jun-15 22:00N 50°01' W 001°43'612.3
2017-Jun-15 21:30N 50°06' W 001°39'2215.1
2017-Jun-15 20:05N 50°25' W 001°21'216.9
2017-Jun-15 19:59N 50°26' W 001°20'817.1
2017-Jun-15 19:30N 50°33' W 001°12'917.4
2017-Jun-15 18:59N 50°40' W 001°04'714.4
2017-Jun-15 18:30N 50°47' W 001°06'2 3.8
2017-Jun-15 18:01N 50°49' W 001°06'0 0.0
2017-Jun-15 17:30N 50°49' W 001°06'0 0.0
2017-Jun-15 17:01N 50°49' W 001°06'0 0.0
2017-Jun-15 16:31N 50°49' W 001°06'0 0.0
2017-Jun-15 16:00N 50°49' W 001°06'0 0.0
2017-Jun-15 15:31N 50°49' W 001°06'2 3.1
2017-Jun-15 15:00N 50°47' W 001°07'1613.8
2017-Jun-15 13:51N 50°32' W 001°14'613.3
2017-Jun-15 13:26N 50°27' W 001°19'2114.3
2017-Jun-15 11:59N 50°10' W 001°36'815.5
2017-Jun-15 11:29N 50°03' W 001°42'815.9
2017-Jun-15 11:00N 49°57' W 001°47'816.3
2017-Jun-15 10:29N 49°49' W 001°54'4116.7
2017-Jun-15 08:00N 49°10' W 002°12'3 1.5
2017-Jun-15 05:46N 49°11' W 002°07'2 7.8
2017-Jun-15 05:27N 49°10' W 002°10'614.3
2017-Jun-15 05:00N 49°12' W 002°19'510.6
2017-Jun-15 04:30N 49°17' W 002°23'5 9.7
2017-Jun-15 03:58N 49°22' W 002°27'612.2
2017-Jun-15 03:30N 49°27' W 002°30'1 2.8
2017-Jun-15 03:00N 49°27' W 002°32'0 0.0
2017-Jun-15 02:30N 49°27' W 002°32'0 0.1
2017-Jun-15 01:55N 49°27' W 002°32'410.0
2017-Jun-15 01:28N 49°27' W 002°25'912.8
2017-Jun-15 00:48N 49°32' W 002°14'414.8
2017-Jun-15 00:30N 49°35' W 002°09'1313.7
2017-Jun-14 23:35N 49°46' W 002°00'111.9
2017-Jun-14 23:29N 49°47' W 001°59'613.3
2017-Jun-14 23:00N 49°52' W 001°53'714.7
2017-Jun-14 22:30N 49°58' W 001°47'815.4
2017-Jun-14 22:00N 50°05' W 001°41'815.7
2017-Jun-14 21:30N 50°11' W 001°34'2916.2
2017-Jun-14 19:43N 50°34' W 001°07'417.4
2017-Jun-14 19:30N 50°37' W 001°03'713.9
2017-Jun-14 19:01N 50°44' W 001°04'4 9.0
2017-Jun-14 18:30N 50°49' W 001°06'0 0.0
2017-Jun-14 18:00N 50°49' W 001°06'0 0.0
2017-Jun-14 17:30N 50°49' W 001°06'0 0.0
2017-Jun-14 17:00N 50°49' W 001°06'0 0.0
2017-Jun-14 16:30N 50°49' W 001°06'0 0.0
2017-Jun-14 16:00N 50°49' W 001°06'0 0.0
2017-Jun-14 15:30N 50°49' W 001°06'2 3.8
2017-Jun-14 15:00N 50°47' W 001°06'1413.5
2017-Jun-14 14:00N 50°34' W 001°10'814.8
2017-Jun-14 13:30N 50°26' W 001°14'715.2
2017-Jun-14 13:00N 50°20' W 001°19'714.0
2017-Jun-14 12:30N 50°14' W 001°25'714.6
2017-Jun-14 12:00N 50°08' W 001°31'815.7
2017-Jun-14 11:30N 50°02' W 001°39'816.6
2017-Jun-14 11:01N 49°57' W 001°49'612.1
2017-Jun-14 10:30N 49°52' W 001°54'4217.4
2017-Jun-14 08:06N 49°10' W 001°55'217.7
2017-Jun-14 08:00N 49°08' W 001°57'17 5.2
2017-Jun-14 04:43N 49°12' W 002°22'410.3
2017-Jun-14 04:19N 49°16' W 002°25'413.1
2017-Jun-14 03:59N 49°20' W 002°27'715.2
2017-Jun-14 03:31N 49°27' W 002°30'1 2.0
2017-Jun-14 02:55N 49°27' W 002°32'0 0.0
2017-Jun-14 01:58N 49°27' W 002°32'4 8.7
2017-Jun-14 01:30N 49°26' W 002°26'1013.7
2017-Jun-14 00:48N 49°32' W 002°14'414.0
2017-Jun-14 00:30N 49°35' W 002°09'815.6
2017-Jun-14 00:00N 49°42' W 002°05'714.4
2017-Jun-13 23:31N 49°48' W 001°58'714.2
2017-Jun-13 23:01N 49°52' W 001°50'714.3
2017-Jun-13 22:31N 49°57' W 001°42'714.3
2017-Jun-13 22:01N 50°04' W 001°37'815.0
2017-Jun-13 21:30N 50°11' W 001°32'714.9
2017-Jun-13 21:00N 50°17' W 001°25'714.7
2017-Jun-13 20:30N 50°23' W 001°18'816.0
2017-Jun-13 20:01N 50°29' W 001°11'916.6
2017-Jun-13 19:30N 50°36' W 001°04'714.7
2017-Jun-13 19:01N 50°43' W 001°02'611.6
2017-Jun-13 18:31N 50°48' W 001°07'  
Track history (hours):
 
Tides and Currents Weather Stations Pressure Air Temp Water Temp Dewpoint Dewpoint Depression Visibility Wind Speed Wind Dir Waves Ship Positions

Commodore Goodwill

Operator: Condor Marine Services

Last reported at 2017-Jun-23 18:31 UTC. Time now 2017-Jun-23 18:55 UTC.
Position N 50°46' W 001°06'.

Length 126 m; draft 5.3 m.

Type: Ship (hazmat cat C). MMSI: 309536000.

Date/timePositionNaut miles runAvg speedWind from/ knotsBaromVisibWave heightAir tempDewpointWater temp
2017-Jun-23 18:31N 50°46' W 001°06'2 4.8
2017-Jun-23 18:00N 50°49' W 001°06'0 0.0
2017-Jun-23 17:30N 50°49' W 001°06'0 0.0
2017-Jun-23 17:00N 50°49' W 001°06'0 0.0
2017-Jun-23 16:30N 50°49' W 001°06'0 0.0
2017-Jun-23 16:00N 50°49' W 001°06'0 0.0
2017-Jun-23 15:30N 50°49' W 001°06'2 4.5
2017-Jun-23 15:00N 50°47' W 001°06'1211.8
2017-Jun-23 13:58N 50°34' W 001°09'9014.3
2017-Jun-23 07:40N 49°17' W 002°21'916.1
2017-Jun-23 07:07N 49°10' W 002°13'2 0.6
2017-Jun-23 04:30N 49°10' W 002°16'32 7.2
2017-Jun-23 00:07N 49°41' W 002°07'518.1
2017-Jun-22 23:51N 49°45' W 002°03'1515.5
2017-Jun-22 22:54N 49°58' W 001°51'4714.2
2017-Jun-22 19:38N 50°36' W 001°08'412.9
2017-Jun-22 19:18N 50°39' W 001°05'414.5
2017-Jun-22 19:01N 50°43' W 001°03'611.7
2017-Jun-22 18:30N 50°49' W 001°06'0 0.8
2017-Jun-22 18:00N 50°49' W 001°06'0 0.0
2017-Jun-22 17:30N 50°49' W 001°06'0 0.0
2017-Jun-22 17:01N 50°49' W 001°06'0 0.0
2017-Jun-22 16:30N 50°49' W 001°06'0 0.0
2017-Jun-22 16:00N 50°49' W 001°06'0 0.0
2017-Jun-22 15:30N 50°49' W 001°06'2 3.5
2017-Jun-22 15:00N 50°47' W 001°06'1111.3
2017-Jun-22 14:00N 50°36' W 001°08'6015.7
2017-Jun-22 10:13N 49°47' W 002°02'3416.7
2017-Jun-22 08:10N 49°15' W 002°21'419.2
2017-Jun-22 07:57N 49°11' W 002°19'7 2.4
2017-Jun-22 04:54N 49°10' W 002°08'2115.2
2017-Jun-22 03:30N 49°26' W 002°29'2 1.6
2017-Jun-22 02:10N 49°27' W 002°32'0 0.2
2017-Jun-22 01:55N 49°27' W 002°32'610.0
2017-Jun-22 01:17N 49°28' W 002°22'414.4
2017-Jun-22 00:59N 49°31' W 002°17'612.8
2017-Jun-22 00:30N 49°34' W 002°09'611.6
2017-Jun-22 00:00N 49°40' W 002°05'1012.7
2017-Jun-21 23:14N 49°48' W 001°60'410.9
2017-Jun-21 22:53N 49°52' W 001°57'712.2
2017-Jun-21 22:20N 49°58' W 001°51'617.2
2017-Jun-21 21:58N 50°03' W 001°45'816.7
2017-Jun-21 21:30N 50°09' W 001°38'1016.1
2017-Jun-21 20:55N 50°16' W 001°28'1017.2
2017-Jun-21 20:21N 50°24' W 001°20'1017.0
2017-Jun-21 19:45N 50°33' W 001°12'416.2
2017-Jun-21 19:30N 50°36' W 001°08'814.9
2017-Jun-21 19:00N 50°43' W 001°03'612.2
2017-Jun-21 18:31N 50°49' W 001°07'1 1.2
2017-Jun-21 18:00N 50°49' W 001°06'0 0.0
2017-Jun-21 17:31N 50°49' W 001°06'0 0.0
2017-Jun-21 17:00N 50°49' W 001°06'0 0.0
2017-Jun-21 16:30N 50°49' W 001°06'0 0.0
2017-Jun-21 16:00N 50°49' W 001°06'0 0.0
2017-Jun-21 15:30N 50°49' W 001°06'2 3.6
2017-Jun-21 15:00N 50°47' W 001°06'815.0
2017-Jun-21 14:30N 50°40' W 001°01'7914.1
2017-Jun-21 08:54N 49°35' W 002°09'1516.0
2017-Jun-21 07:58N 49°26' W 002°27'3 2.0
2017-Jun-21 06:18N 49°27' W 002°32'613.3
2017-Jun-21 05:51N 49°22' W 002°27'1314.5
2017-Jun-21 04:57N 49°11' W 002°18'716.4
2017-Jun-21 04:30N 49°11' W 002°07'1 0.4
2017-Jun-21 02:12N 49°10' W 002°08'2510.6
2017-Jun-20 23:53N 49°34' W 002°10'615.1
2017-Jun-20 23:28N 49°40' W 002°07'1317.7
2017-Jun-20 22:43N 49°49' W 001°52'917.3
2017-Jun-20 22:11N 49°55' W 001°41'418.3
2017-Jun-20 21:58N 49°58' W 001°36'1018.3
2017-Jun-20 21:27N 50°07' W 001°31'917.2
2017-Jun-20 20:56N 50°16' W 001°32'917.5
2017-Jun-20 20:24N 50°23' W 001°24'718.3
2017-Jun-20 20:00N 50°29' W 001°16'1018.1
2017-Jun-20 19:27N 50°37' W 001°07'715.4
2017-Jun-20 19:00N 50°44' W 001°04'510.6
2017-Jun-20 18:31N 50°49' W 001°06'1 1.0
2017-Jun-20 18:00N 50°49' W 001°06'0 0.0
2017-Jun-20 17:30N 50°49' W 001°06'0 0.0
2017-Jun-20 17:00N 50°49' W 001°06'0 0.0
2017-Jun-20 16:30N 50°49' W 001°06'0 0.0
2017-Jun-20 16:00N 50°49' W 001°06'0 0.0
2017-Jun-20 15:30N 50°49' W 001°06'2 3.6
2017-Jun-20 15:01N 50°47' W 001°06'1313.3
2017-Jun-20 14:00N 50°34' W 001°08'1213.6
2017-Jun-20 13:09N 50°25' W 001°19'612.8
2017-Jun-20 12:39N 50°20' W 001°26'212.4
2017-Jun-20 12:27N 50°18' W 001°28'612.1
2017-Jun-20 11:56N 50°13' W 001°35'511.6
2017-Jun-20 11:30N 50°09' W 001°39'611.4
2017-Jun-20 10:59N 50°04' W 001°44'613.4
2017-Jun-20 10:30N 49°58' W 001°48'1015.3
2017-Jun-20 09:51N 49°49' W 001°56'714.0
2017-Jun-20 09:22N 49°45' W 002°03'813.4
2017-Jun-20 08:48N 49°38' W 002°07'515.4
2017-Jun-20 08:30N 49°34' W 002°11'816.4
2017-Jun-20 08:00N 49°29' W 002°21'612.1
2017-Jun-20 07:30N 49°27' W 002°30'1 2.1
2017-Jun-20 06:59N 49°27' W 002°32'0 0.0
2017-Jun-20 06:21N 49°27' W 002°32'410.0
2017-Jun-20 05:57N 49°24' W 002°28'612.9
2017-Jun-20 05:28N 49°19' W 002°23'611.5
2017-Jun-20 04:59N 49°14' W 002°20'713.7
2017-Jun-20 04:30N 49°10' W 002°12'3 1.6
2017-Jun-20 02:23N 49°10' W 002°07'614.7
2017-Jun-20 02:00N 49°10' W 002°16'714.6
2017-Jun-20 01:30N 49°17' W 002°19'8515.0
2017-Jun-19 19:52N 50°31' W 001°14'718.4
2017-Jun-19 19:30N 50°36' W 001°08'816.3
2017-Jun-19 19:01N 50°44' W 001°04'5 9.9
2017-Jun-19 18:31N 50°49' W 001°06'0 0.4
2017-Jun-19 18:00N 50°49' W 001°06'0 0.0
2017-Jun-19 17:30N 50°49' W 001°06'0 0.0
2017-Jun-19 17:01N 50°49' W 001°06'0 0.0
2017-Jun-19 16:31N 50°49' W 001°06'0 0.0
2017-Jun-19 16:01N 50°49' W 001°06'0 0.0
2017-Jun-19 15:30N 50°49' W 001°06'3 5.0
2017-Jun-19 15:01N 50°46' W 001°06'612.1
2017-Jun-19 14:30N 50°40' W 001°04'9213.7
2017-Jun-19 07:45N 49°26' W 002°28'20 3.6
2017-Jun-19 02:12N 49°10' W 002°09'39 9.7
2017-Jun-18 22:12N 49°49' W 002°02'313.9
2017-Jun-18 22:00N 49°51' W 002°01'714.3
2017-Jun-18 21:30N 49°58' W 001°57'715.0
2017-Jun-18 21:01N 50°04' W 001°51'816.1
2017-Jun-18 20:30N 50°10' W 001°43'916.5
2017-Jun-18 19:59N 50°17' W 001°34'816.8
2017-Jun-18 19:30N 50°23' W 001°25'1516.6
2017-Jun-18 18:37N 50°34' W 001°11'917.6
2017-Jun-18 18:08N 50°41' W 001°03'216.7
2017-Jun-18 18:00N 50°43' W 001°03'611.9
2017-Jun-18 17:30N 50°48' W 001°07'1 1.7
2017-Jun-18 17:00N 50°49' W 001°06'0 0.0
2017-Jun-18 16:30N 50°49' W 001°06'0 0.0
2017-Jun-18 16:00N 50°49' W 001°06'0 0.0
2017-Jun-18 15:30N 50°49' W 001°06'0 0.0
2017-Jun-18 15:00N 50°49' W 001°06'0 0.0
2017-Jun-18 14:00N 50°49' W 001°06'0 0.0
2017-Jun-18 13:30N 50°49' W 001°06'0 0.0
2017-Jun-18 13:00N 50°49' W 001°06'0 0.0
2017-Jun-18 12:30N 50°49' W 001°06'0 0.0
2017-Jun-18 12:00N 50°49' W 001°06'0 0.0
2017-Jun-18 11:30N 50°49' W 001°06'0 0.0
2017-Jun-18 11:00N 50°49' W 001°06'0 0.0
2017-Jun-18 10:30N 50°49' W 001°06'0 0.0
2017-Jun-18 10:00N 50°49' W 001°06'0 0.0
2017-Jun-18 09:30N 50°49' W 001°06'0 0.0
2017-Jun-18 09:00N 50°49' W 001°06'0 0.0
2017-Jun-18 08:30N 50°49' W 001°06'0 0.0
2017-Jun-18 08:01N 50°49' W 001°06'0 0.0
2017-Jun-18 07:31N 50°49' W 001°06'0 0.0
2017-Jun-18 07:01N 50°49' W 001°06'0 0.0
2017-Jun-18 06:31N 50°49' W 001°06'0 0.0
2017-Jun-18 06:00N 50°49' W 001°06'2 3.3
2017-Jun-18 05:30N 50°47' W 001°06'714.3
2017-Jun-18 05:00N 50°40' W 001°04'2814.3
2017-Jun-18 03:05N 50°18' W 001°30'113.1
2017-Jun-18 03:00N 50°17' W 001°30'811.9
2017-Jun-18 02:21N 50°10' W 001°36'411.4
2017-Jun-18 02:01N 50°07' W 001°39'611.7
2017-Jun-18 01:30N 50°02' W 001°44'612.0
2017-Jun-18 01:00N 49°57' W 001°49'611.9
2017-Jun-18 00:30N 49°52' W 001°54'510.5
2017-Jun-18 00:01N 49°47' W 001°59'2410.1
2017-Jun-17 21:36N 49°25' W 002°14'2 7.8
2017-Jun-17 21:20N 49°23' W 002°16'4 7.8
2017-Jun-17 20:46N 49°19' W 002°19'3 7.6
2017-Jun-17 20:24N 49°17' W 002°20'23 6.7
2017-Jun-17 17:02N 48°54' W 002°21'0 5.0
2017-Jun-17 16:58N 48°54' W 002°20'3 5.4
2017-Jun-17 16:30N 48°52' W 002°18'3 5.5
2017-Jun-17 16:01N 48°50' W 002°16'3 5.4
2017-Jun-17 15:30N 48°47' W 002°14'3 5.7
2017-Jun-17 14:53N 48°44' W 002°11'5 6.1
2017-Jun-17 13:59N 48°40' W 002°05'3 1.1
2017-Jun-17 11:25N 48°38' W 002°02'611.8
2017-Jun-17 10:57N 48°44' W 002°02'917.4
2017-Jun-17 10:27N 48°52' W 001°59'817.5
2017-Jun-17 09:59N 49°00' W 001°55'1218.1
2017-Jun-17 09:18N 49°10' W 002°07'1 0.5
2017-Jun-17 06:57N 49°11' W 002°07'3 4.9
2017-Jun-17 06:25N 49°10' W 002°11'815.1
2017-Jun-17 05:53N 49°14' W 002°21'614.6
2017-Jun-17 05:28N 49°19' W 002°26'813.7
2017-Jun-17 04:53N 49°27' W 002°30'1 0.9
2017-Jun-17 03:23N 49°27' W 002°32'4 9.3
2017-Jun-17 03:00N 49°26' W 002°27'914.9
2017-Jun-17 02:23N 49°31' W 002°15'614.5
2017-Jun-17 01:59N 49°36' W 002°09'1310.6
2017-Jun-17 00:46N 49°47' W 001°59'2 9.1
2017-Jun-17 00:30N 49°48' W 001°57'5 9.6
2017-Jun-17 00:00N 49°51' W 001°51'510.4
2017-Jun-16 23:30N 49°55' W 001°46'610.8
2017-Jun-16 23:00N 49°59' W 001°40'612.1
2017-Jun-16 22:30N 50°05' W 001°37'612.6
2017-Jun-16 22:00N 50°11' W 001°34'612.2
2017-Jun-16 21:30N 50°16' W 001°29'611.2
2017-Jun-16 21:00N 50°21' W 001°24'612.2
2017-Jun-16 20:30N 50°26' W 001°18'612.7
2017-Jun-16 19:59N 50°31' W 001°13'713.3
2017-Jun-16 19:30N 50°37' W 001°08'713.4
2017-Jun-16 19:01N 50°43' W 001°03'611.7
2017-Jun-16 18:31N 50°48' W 001°07'1 1.7
2017-Jun-16 18:00N 50°49' W 001°06'0 0.0
2017-Jun-16 17:30N 50°49' W 001°06'0 0.0
2017-Jun-16 17:00N 50°49' W 001°06'0 0.0
2017-Jun-16 16:30N 50°49' W 001°06'0 0.3
2017-Jun-16 16:00N 50°49' W 001°06'4 8.9
2017-Jun-16 15:30N 50°44' W 001°04'915.9
2017-Jun-16 14:58N 50°36' W 001°08'818.1
2017-Jun-16 14:30N 50°29' W 001°16'1918.7
2017-Jun-16 13:29N 50°13' W 001°32'918.9
2017-Jun-16 13:00N 50°06' W 001°40'815.2
2017-Jun-16 12:30N 49°59' W 001°46'1018.8
2017-Jun-16 12:00N 49°52' W 001°55'6 0.5
2017-Jun-15 23:33N 49°46' W 001°59'112.8
2017-Jun-15 23:29N 49°47' W 001°59'713.5
2017-Jun-15 23:00N 49°52' W 001°52'611.2
2017-Jun-15 22:30N 49°57' W 001°48'510.2
2017-Jun-15 22:00N 50°01' W 001°43'612.3
2017-Jun-15 21:30N 50°06' W 001°39'2215.1
2017-Jun-15 20:05N 50°25' W 001°21'216.9
2017-Jun-15 19:59N 50°26' W 001°20'817.1
2017-Jun-15 19:30N 50°33' W 001°12'917.4
2017-Jun-15 18:59N 50°40' W 001°04'714.4
2017-Jun-15 18:30N 50°47' W 001°06'2 3.8
2017-Jun-15 18:01N 50°49' W 001°06'0 0.0
2017-Jun-15 17:30N 50°49' W 001°06'0 0.0
2017-Jun-15 17:01N 50°49' W 001°06'0 0.0
2017-Jun-15 16:31N 50°49' W 001°06'0 0.0
2017-Jun-15 16:00N 50°49' W 001°06'0 0.0
2017-Jun-15 15:31N 50°49' W 001°06'2 3.1
2017-Jun-15 15:00N 50°47' W 001°07'1613.8
2017-Jun-15 13:51N 50°32' W 001°14'613.3
2017-Jun-15 13:26N 50°27' W 001°19'2114.3
2017-Jun-15 11:59N 50°10' W 001°36'815.5
2017-Jun-15 11:29N 50°03' W 001°42'815.9
2017-Jun-15 11:00N 49°57' W 001°47'816.3
2017-Jun-15 10:29N 49°49' W 001°54'4116.7
2017-Jun-15 08:00N 49°10' W 002°12'3 1.5
2017-Jun-15 05:46N 49°11' W 002°07'2 7.8
2017-Jun-15 05:27N 49°10' W 002°10'614.3
2017-Jun-15 05:00N 49°12' W 002°19'510.6
2017-Jun-15 04:30N 49°17' W 002°23'5 9.7
2017-Jun-15 03:58N 49°22' W 002°27'612.2
2017-Jun-15 03:30N 49°27' W 002°30'1 2.8
2017-Jun-15 03:00N 49°27' W 002°32'0 0.0
2017-Jun-15 02:30N 49°27' W 002°32'0 0.1
2017-Jun-15 01:55N 49°27' W 002°32'410.0
2017-Jun-15 01:28N 49°27' W 002°25'912.8
2017-Jun-15 00:48N 49°32' W 002°14'414.8
2017-Jun-15 00:30N 49°35' W 002°09'1313.7
2017-Jun-14 23:35N 49°46' W 002°00'111.9
2017-Jun-14 23:29N 49°47' W 001°59'613.3
2017-Jun-14 23:00N 49°52' W 001°53'714.7
2017-Jun-14 22:30N 49°58' W 001°47'815.4
2017-Jun-14 22:00N 50°05' W 001°41'815.7
2017-Jun-14 21:30N 50°11' W 001°34'2916.2
2017-Jun-14 19:43N 50°34' W 001°07'417.4
2017-Jun-14 19:30N 50°37' W 001°03'713.9
2017-Jun-14 19:01N 50°44' W 001°04'4 9.0
2017-Jun-14 18:30N 50°49' W 001°06'0 0.0
2017-Jun-14 18:00N 50°49' W 001°06'0 0.0
2017-Jun-14 17:30N 50°49' W 001°06'0 0.0
2017-Jun-14 17:00N 50°49' W 001°06'0 0.0
2017-Jun-14 16:30N 50°49' W 001°06'0 0.0
2017-Jun-14 16:00N 50°49' W 001°06'0 0.0
2017-Jun-14 15:30N 50°49' W 001°06'2 3.8
2017-Jun-14 15:00N 50°47' W 001°06'1413.5
2017-Jun-14 14:00N 50°34' W 001°10'814.8
2017-Jun-14 13:30N 50°26' W 001°14'715.2
2017-Jun-14 13:00N 50°20' W 001°19'714.0
2017-Jun-14 12:30N 50°14' W 001°25'714.6
2017-Jun-14 12:00N 50°08' W 001°31'815.7
2017-Jun-14 11:30N 50°02' W 001°39'816.6
2017-Jun-14 11:01N 49°57' W 001°49'612.1
2017-Jun-14 10:30N 49°52' W 001°54'4217.4
2017-Jun-14 08:06N 49°10' W 001°55'217.7
2017-Jun-14 08:00N 49°08' W 001°57'17 5.2
2017-Jun-14 04:43N 49°12' W 002°22'410.3
2017-Jun-14 04:19N 49°16' W 002°25'413.1
2017-Jun-14 03:59N 49°20' W 002°27'715.2
2017-Jun-14 03:31N 49°27' W 002°30'1 2.0
2017-Jun-14 02:55N 49°27' W 002°32'0 0.0
2017-Jun-14 01:58N 49°27' W 002°32'4 8.7
2017-Jun-14 01:30N 49°26' W 002°26'1013.7
2017-Jun-14 00:48N 49°32' W 002°14'414.0
2017-Jun-14 00:30N 49°35' W 002°09'815.6
2017-Jun-14 00:00N 49°42' W 002°05'714.4
2017-Jun-13 23:31N 49°48' W 001°58'714.2
2017-Jun-13 23:01N 49°52' W 001°50'714.3
2017-Jun-13 22:31N 49°57' W 001°42'714.3
2017-Jun-13 22:01N 50°04' W 001°37'815.0
2017-Jun-13 21:30N 50°11' W 001°32'714.9
2017-Jun-13 21:00N 50°17' W 001°25'714.7
2017-Jun-13 20:30N 50°23' W 001°18'816.0
2017-Jun-13 20:01N 50°29' W 001°11'916.6
2017-Jun-13 19:30N 50°36' W 001°04'714.7
2017-Jun-13 19:01N 50°43' W 001°02'611.6
2017-Jun-13 18:31N 50°48' W 001°07'  

Dump ship's entire track history